Saitama, Japan
Current Conditions -  °F | °C
As of 2:58 PM on Saturday 29 Nov 2014 (Local Time) from RJTY Reporting Station
Few Clouds Few Clouds  
Wind Chill: 58°   Ceiling: Unl
Heat Index: 58°   Visibility: 10mi
Dew Point: 57°   Wind: 2mph
Humidity: 99%   Direction: 240°WSW
Pressure: 29.89"   Gusts: NA
Location:  35.87°N, 139.65°E
Report Text: RJTY 290558Z AUTO 24002KT 10SM FEW007 14/14 A2989 RMK AO2 SLP127 60013 T01420140 10142 20125 55018
Loading
Personal Weather Stations






























Interactive Weather Map New forecast layout! Learn more

10-Day Weather Forecast

Advertisements
Track Severe Weather on mobile